sensor_id;sensor_type;location;lat;lon;timestamp;P1;durP1;ratioP1;P2;durP2;ratioP2
78873;SDS011;68250;43.514;1.494;2023-04-25T00:01:36;7.60;;;2.20;;
78873;SDS011;68250;43.514;1.494;2023-04-25T00:04:03;7.10;;;2.08;;
78873;SDS011;68250;43.514;1.494;2023-04-25T00:06:31;7.18;;;2.50;;
78873;SDS011;68250;43.514;1.494;2023-04-25T00:08:57;5.83;;;2.30;;
78873;SDS011;68250;43.514;1.494;2023-04-25T00:11:23;6.50;;;2.22;;
78873;SDS011;68250;43.514;1.494;2023-04-25T00:13:49;5.95;;;2.38;;
78873;SDS011;68250;43.514;1.494;2023-04-25T00:16:18;6.67;;;2.40;;
78873;SDS011;68250;43.514;1.494;2023-04-25T00:18:43;7.75;;;2.10;;
78873;SDS011;68250;43.514;1.494;2023-04-25T00:21:11;7.50;;;1.88;;
78873;SDS011;68250;43.514;1.494;2023-04-25T00:23:36;5.07;;;1.87;;
78873;SDS011;68250;43.514;1.494;2023-04-25T00:26:03;7.80;;;2.47;;
78873;SDS011;68250;43.514;1.494;2023-04-25T00:28:29;6.45;;;2.08;;
78873;SDS011;68250;43.514;1.494;2023-04-25T00:30:55;5.82;;;2.20;;
78873;SDS011;68250;43.514;1.494;2023-04-25T00:33:20;6.10;;;2.20;;
78873;SDS011;68250;43.514;1.494;2023-04-25T00:35:46;6.07;;;1.88;;
78873;SDS011;68250;43.514;1.494;2023-04-25T00:38:12;6.00;;;1.60;;
78873;SDS011;68250;43.514;1.494;2023-04-25T00:40:37;5.00;;;1.50;;
78873;SDS011;68250;43.514;1.494;2023-04-25T00:43:03;5.45;;;1.70;;
78873;SDS011;68250;43.514;1.494;2023-04-25T00:45:29;4.80;;;1.42;;
78873;SDS011;68250;43.514;1.494;2023-04-25T00:47:55;5.72;;;1.35;;
78873;SDS011;68250;43.514;1.494;2023-04-25T00:50:21;8.70;;;1.80;;
78873;SDS011;68250;43.514;1.494;2023-04-25T00:52:47;4.22;;;1.40;;
78873;SDS011;68250;43.514;1.494;2023-04-25T00:55:13;3.77;;;1.20;;
78873;SDS011;68250;43.514;1.494;2023-04-25T00:57:39;4.63;;;1.23;;
78873;SDS011;68250;43.514;1.494;2023-04-25T01:00:05;4.40;;;1.30;;
78873;SDS011;68250;43.514;1.494;2023-04-25T01:02:32;3.25;;;1.08;;
78873;SDS011;68250;43.514;1.494;2023-04-25T01:04:59;4.75;;;1.17;;
78873;SDS011;68250;43.514;1.494;2023-04-25T01:07:25;3.42;;;1.00;;
78873;SDS011;68250;43.514;1.494;2023-04-25T01:09:51;2.80;;;0.70;;
78873;SDS011;68250;43.514;1.494;2023-04-25T01:12:17;3.30;;;0.82;;
78873;SDS011;68250;43.514;1.494;2023-04-25T01:14:43;3.83;;;0.70;;
78873;SDS011;68250;43.514;1.494;2023-04-25T01:17:09;5.03;;;0.73;;
78873;SDS011;68250;43.514;1.494;2023-04-25T01:19:35;3.72;;;0.70;;
78873;SDS011;68250;43.514;1.494;2023-04-25T01:22:01;4.30;;;0.60;;
78873;SDS011;68250;43.514;1.494;2023-04-25T01:24:26;3.10;;;0.60;;
78873;SDS011;68250;43.514;1.494;2023-04-25T01:26:53;2.55;;;0.40;;
78873;SDS011;68250;43.514;1.494;2023-04-25T01:29:21;2.70;;;0.40;;
78873;SDS011;68250;43.514;1.494;2023-04-25T01:31:47;3.30;;;0.60;;
78873;SDS011;68250;43.514;1.494;2023-04-25T01:34:13;2.00;;;0.30;;
78873;SDS011;68250;43.514;1.494;2023-04-25T01:36:39;2.45;;;0.30;;
78873;SDS011;68250;43.514;1.494;2023-04-25T01:39:05;1.80;;;0.20;;
78873;SDS011;68250;43.514;1.494;2023-04-25T01:41:32;2.53;;;0.30;;
78873;SDS011;68250;43.514;1.494;2023-04-25T01:43:59;1.90;;;0.30;;
78873;SDS011;68250;43.514;1.494;2023-04-25T01:46:25;2.58;;;0.32;;
78873;SDS011;68250;43.514;1.494;2023-04-25T01:48:51;2.33;;;0.50;;
78873;SDS011;68250;43.514;1.494;2023-04-25T01:51:17;1.63;;;0.20;;
78873;SDS011;68250;43.514;1.494;2023-04-25T01:53:43;1.60;;;0.20;;
78873;SDS011;68250;43.514;1.494;2023-04-25T01:56:08;2.53;;;0.30;;
78873;SDS011;68250;43.514;1.494;2023-04-25T01:58:35;1.73;;;0.20;;
78873;SDS011;68250;43.514;1.494;2023-04-25T02:01:00;1.90;;;0.20;;
78873;SDS011;68250;43.514;1.494;2023-04-25T02:03:26;1.50;;;0.20;;
78873;SDS011;68250;43.514;1.494;2023-04-25T02:05:51;1.83;;;0.30;;
78873;SDS011;68250;43.514;1.494;2023-04-25T02:08:17;1.27;;;0.20;;
78873;SDS011;68250;43.514;1.494;2023-04-25T02:10:43;2.10;;;0.20;;
78873;SDS011;68250;43.514;1.494;2023-04-25T02:13:09;1.73;;;0.20;;
78873;SDS011;68250;43.514;1.494;2023-04-25T02:15:34;1.60;;;0.20;;
78873;SDS011;68250;43.514;1.494;2023-04-25T02:18:00;1.97;;;0.30;;
78873;SDS011;68250;43.514;1.494;2023-04-25T02:20:27;2.10;;;0.20;;
78873;SDS011;68250;43.514;1.494;2023-04-25T02:22:53;1.40;;;0.20;;
78873;SDS011;68250;43.514;1.494;2023-04-25T02:25:19;1.40;;;0.20;;
78873;SDS011;68250;43.514;1.494;2023-04-25T02:27:45;3.08;;;0.30;;
78873;SDS011;68250;43.514;1.494;2023-04-25T02:30:12;2.95;;;0.20;;
78873;SDS011;68250;43.514;1.494;2023-04-25T02:32:38;1.65;;;0.20;;
78873;SDS011;68250;43.514;1.494;2023-04-25T02:35:04;2.20;;;0.20;;
78873;SDS011;68250;43.514;1.494;2023-04-25T02:37:31;2.10;;;0.20;;
78873;SDS011;68250;43.514;1.494;2023-04-25T02:39:57;2.70;;;0.20;;
78873;SDS011;68250;43.514;1.494;2023-04-25T02:42:23;1.73;;;0.20;;
78873;SDS011;68250;43.514;1.494;2023-04-25T02:44:48;1.60;;;0.20;;
78873;SDS011;68250;43.514;1.494;2023-04-25T02:47:14;1.73;;;0.20;;
78873;SDS011;68250;43.514;1.494;2023-04-25T02:49:39;1.10;;;0.10;;
78873;SDS011;68250;43.514;1.494;2023-04-25T02:52:05;1.30;;;0.20;;
78873;SDS011;68250;43.514;1.494;2023-04-25T02:54:31;1.53;;;0.20;;
78873;SDS011;68250;43.514;1.494;2023-04-25T02:56:57;1.42;;;0.20;;
78873;SDS011;68250;43.514;1.494;2023-04-25T02:59:22;0.90;;;0.10;;
78873;SDS011;68250;43.514;1.494;2023-04-25T03:01:48;2.28;;;0.20;;
78873;SDS011;68250;43.514;1.494;2023-04-25T03:04:13;2.27;;;0.20;;
78873;SDS011;68250;43.514;1.494;2023-04-25T03:06:39;1.60;;;0.27;;
78873;SDS011;68250;43.514;1.494;2023-04-25T03:09:04;1.30;;;0.15;;
78873;SDS011;68250;43.514;1.494;2023-04-25T03:11:30;1.73;;;0.33;;
78873;SDS011;68250;43.514;1.494;2023-04-25T03:13:56;1.43;;;0.20;;
78873;SDS011;68250;43.514;1.494;2023-04-25T03:16:21;1.95;;;0.20;;
78873;SDS011;68250;43.514;1.494;2023-04-25T03:18:47;1.47;;;0.20;;
78873;SDS011;68250;43.514;1.494;2023-04-25T03:21:14;1.60;;;0.20;;
78873;SDS011;68250;43.514;1.494;2023-04-25T03:23:40;1.75;;;0.20;;
78873;SDS011;68250;43.514;1.494;2023-04-25T03:26:05;1.83;;;0.20;;
78873;SDS011;68250;43.514;1.494;2023-04-25T03:28:31;2.65;;;0.20;;
78873;SDS011;68250;43.514;1.494;2023-04-25T03:30:57;1.33;;;0.20;;
78873;SDS011;68250;43.514;1.494;2023-04-25T03:33:22;1.87;;;0.20;;
78873;SDS011;68250;43.514;1.494;2023-04-25T03:35:48;2.10;;;0.30;;
78873;SDS011;68250;43.514;1.494;2023-04-25T03:38:14;1.92;;;0.30;;
78873;SDS011;68250;43.514;1.494;2023-04-25T03:40:40;1.63;;;0.22;;
78873;SDS011;68250;43.514;1.494;2023-04-25T03:43:06;1.30;;;0.20;;
78873;SDS011;68250;43.514;1.494;2023-04-25T03:45:32;3.55;;;0.22;;
78873;SDS011;68250;43.514;1.494;2023-04-25T03:47:57;2.03;;;0.20;;
78873;SDS011;68250;43.514;1.494;2023-04-25T03:50:23;2.30;;;0.20;;
78873;SDS011;68250;43.514;1.494;2023-04-25T03:52:48;1.87;;;0.20;;
78873;SDS011;68250;43.514;1.494;2023-04-25T03:55:15;1.35;;;0.20;;
78873;SDS011;68250;43.514;1.494;2023-04-25T03:57:40;1.77;;;0.20;;
78873;SDS011;68250;43.514;1.494;2023-04-25T04:00:06;2.75;;;0.30;;
78873;SDS011;68250;43.514;1.494;2023-04-25T04:02:32;2.17;;;0.20;;
78873;SDS011;68250;43.514;1.494;2023-04-25T04:04:59;3.40;;;0.20;;
78873;SDS011;68250;43.514;1.494;2023-04-25T04:07:25;1.92;;;0.22;;
78873;SDS011;68250;43.514;1.494;2023-04-25T04:09:51;1.87;;;0.20;;
78873;SDS011;68250;43.514;1.494;2023-04-25T04:12:16;2.93;;;0.30;;
78873;SDS011;68250;43.514;1.494;2023-04-25T04:14:42;2.08;;;0.30;;
78873;SDS011;68250;43.514;1.494;2023-04-25T04:17:07;2.67;;;0.20;;
78873;SDS011;68250;43.514;1.494;2023-04-25T04:19:33;2.33;;;0.20;;
78873;SDS011;68250;43.514;1.494;2023-04-25T04:21:58;2.38;;;0.22;;
78873;SDS011;68250;43.514;1.494;2023-04-25T04:24:24;3.55;;;0.20;;
78873;SDS011;68250;43.514;1.494;2023-04-25T04:26:50;2.78;;;0.30;;
78873;SDS011;68250;43.514;1.494;2023-04-25T04:29:17;2.30;;;0.30;;
78873;SDS011;68250;43.514;1.494;2023-04-25T04:31:47;2.37;;;0.20;;
78873;SDS011;68250;43.514;1.494;2023-04-25T04:34:14;2.55;;;0.20;;
78873;SDS011;68250;43.514;1.494;2023-04-25T04:36:41;1.55;;;0.32;;
78873;SDS011;68250;43.514;1.494;2023-04-25T04:39:07;1.38;;;0.28;;
78873;SDS011;68250;43.514;1.494;2023-04-25T04:41:34;1.83;;;0.30;;
78873;SDS011;68250;43.514;1.494;2023-04-25T04:43:59;1.88;;;0.30;;
78873;SDS011;68250;43.514;1.494;2023-04-25T04:46:26;1.65;;;0.30;;
78873;SDS011;68250;43.514;1.494;2023-04-25T04:48:53;1.90;;;0.30;;
78873;SDS011;68250;43.514;1.494;2023-04-25T04:51:18;3.15;;;0.30;;
78873;SDS011;68250;43.514;1.494;2023-04-25T04:53:45;1.70;;;0.30;;
78873;SDS011;68250;43.514;1.494;2023-04-25T04:56:11;2.20;;;0.30;;
78873;SDS011;68250;43.514;1.494;2023-04-25T04:58:37;2.03;;;0.37;;
78873;SDS011;68250;43.514;1.494;2023-04-25T05:01:03;2.53;;;0.30;;
78873;SDS011;68250;43.514;1.494;2023-04-25T05:03:29;1.95;;;0.28;;
78873;SDS011;68250;43.514;1.494;2023-04-25T05:05:55;3.85;;;0.30;;
78873;SDS011;68250;43.514;1.494;2023-04-25T05:08:21;2.13;;;0.40;;
78873;SDS011;68250;43.514;1.494;2023-04-25T05:10:47;2.50;;;0.50;;
78873;SDS011;68250;43.514;1.494;2023-04-25T05:13:12;2.20;;;0.40;;
78873;SDS011;68250;43.514;1.494;2023-04-25T05:15:38;2.17;;;0.40;;
78873;SDS011;68250;43.514;1.494;2023-04-25T05:18:03;2.25;;;0.40;;
78873;SDS011;68250;43.514;1.494;2023-04-25T05:20:29;2.87;;;0.40;;
78873;SDS011;68250;43.514;1.494;2023-04-25T05:22:55;2.35;;;0.40;;
78873;SDS011;68250;43.514;1.494;2023-04-25T05:25:20;2.60;;;0.43;;
78873;SDS011;68250;43.514;1.494;2023-04-25T05:27:46;2.00;;;0.30;;
78873;SDS011;68250;43.514;1.494;2023-04-25T05:30:11;2.83;;;0.50;;
78873;SDS011;68250;43.514;1.494;2023-04-25T05:32:37;2.30;;;0.55;;
78873;SDS011;68250;43.514;1.494;2023-04-25T05:35:02;2.37;;;0.40;;
78873;SDS011;68250;43.514;1.494;2023-04-25T05:37:28;2.78;;;0.50;;
78873;SDS011;68250;43.514;1.494;2023-04-25T05:39:56;2.53;;;0.50;;
78873;SDS011;68250;43.514;1.494;2023-04-25T05:42:21;2.77;;;0.53;;
78873;SDS011;68250;43.514;1.494;2023-04-25T05:44:47;3.63;;;0.50;;
78873;SDS011;68250;43.514;1.494;2023-04-25T05:47:12;5.70;;;2.60;;
78873;SDS011;68250;43.514;1.494;2023-04-25T05:49:38;2.97;;;0.73;;
78873;SDS011;68250;43.514;1.494;2023-04-25T05:52:03;3.60;;;1.20;;
78873;SDS011;68250;43.514;1.494;2023-04-25T05:54:29;2.30;;;0.40;;
78873;SDS011;68250;43.514;1.494;2023-04-25T05:56:56;3.33;;;0.60;;
78873;SDS011;68250;43.514;1.494;2023-04-25T05:59:22;3.20;;;0.50;;
78873;SDS011;68250;43.514;1.494;2023-04-25T06:01:47;3.40;;;0.50;;
78873;SDS011;68250;43.514;1.494;2023-04-25T06:04:13;3.38;;;0.60;;
78873;SDS011;68250;43.514;1.494;2023-04-25T06:06:39;2.60;;;0.50;;
78873;SDS011;68250;43.514;1.494;2023-04-25T06:09:04;2.40;;;0.40;;
78873;SDS011;68250;43.514;1.494;2023-04-25T06:11:30;3.22;;;0.50;;
78873;SDS011;68250;43.514;1.494;2023-04-25T06:13:55;2.90;;;0.60;;
78873;SDS011;68250;43.514;1.494;2023-04-25T06:16:21;3.17;;;0.40;;
78873;SDS011;68250;43.514;1.494;2023-04-25T06:18:47;2.67;;;0.50;;
78873;SDS011;68250;43.514;1.494;2023-04-25T06:21:12;2.63;;;0.43;;
78873;SDS011;68250;43.514;1.494;2023-04-25T06:23:38;2.60;;;0.50;;
78873;SDS011;68250;43.514;1.494;2023-04-25T06:26:03;2.30;;;0.40;;
78873;SDS011;68250;43.514;1.494;2023-04-25T06:28:29;2.53;;;0.40;;
78873;SDS011;68250;43.514;1.494;2023-04-25T06:30:54;2.38;;;0.50;;
78873;SDS011;68250;43.514;1.494;2023-04-25T06:33:20;3.53;;;0.60;;
78873;SDS011;68250;43.514;1.494;2023-04-25T06:35:46;3.25;;;0.50;;
78873;SDS011;68250;43.514;1.494;2023-04-25T06:38:12;2.90;;;0.67;;
78873;SDS011;68250;43.514;1.494;2023-04-25T06:40:37;2.60;;;0.60;;
78873;SDS011;68250;43.514;1.494;2023-04-25T06:43:03;2.37;;;0.47;;
78873;SDS011;68250;43.514;1.494;2023-04-25T06:45:29;3.15;;;0.50;;
78873;SDS011;68250;43.514;1.494;2023-04-25T06:47:55;2.80;;;0.50;;
78873;SDS011;68250;43.514;1.494;2023-04-25T06:50:20;2.80;;;0.40;;
78873;SDS011;68250;43.514;1.494;2023-04-25T06:52:46;4.45;;;0.47;;
78873;SDS011;68250;43.514;1.494;2023-04-25T06:55:12;3.08;;;0.70;;
78873;SDS011;68250;43.514;1.494;2023-04-25T06:57:37;2.60;;;0.43;;
78873;SDS011;68250;43.514;1.494;2023-04-25T07:00:03;2.60;;;0.60;;
78873;SDS011;68250;43.514;1.494;2023-04-25T07:02:30;2.70;;;0.70;;
78873;SDS011;68250;43.514;1.494;2023-04-25T07:04:56;2.43;;;0.60;;
78873;SDS011;68250;43.514;1.494;2023-04-25T07:07:24;2.80;;;0.63;;
78873;SDS011;68250;43.514;1.494;2023-04-25T07:09:50;2.30;;;0.43;;
78873;SDS011;68250;43.514;1.494;2023-04-25T07:12:16;3.70;;;0.63;;
78873;SDS011;68250;43.514;1.494;2023-04-25T07:14:41;3.10;;;0.50;;
78873;SDS011;68250;43.514;1.494;2023-04-25T07:17:07;3.45;;;0.60;;
78873;SDS011;68250;43.514;1.494;2023-04-25T07:19:32;4.07;;;0.90;;
78873;SDS011;68250;43.514;1.494;2023-04-25T07:21:58;3.28;;;0.80;;
78873;SDS011;68250;43.514;1.494;2023-04-25T07:24:24;3.93;;;0.70;;
78873;SDS011;68250;43.514;1.494;2023-04-25T07:26:49;3.50;;;0.60;;
78873;SDS011;68250;43.514;1.494;2023-04-25T07:29:16;3.22;;;0.80;;
78873;SDS011;68250;43.514;1.494;2023-04-25T07:31:42;2.42;;;0.70;;
78873;SDS011;68250;43.514;1.494;2023-04-25T07:34:07;2.87;;;0.70;;
78873;SDS011;68250;43.514;1.494;2023-04-25T07:36:33;3.60;;;0.60;;
78873;SDS011;68250;43.514;1.494;2023-04-25T07:38:58;2.75;;;0.85;;
78873;SDS011;68250;43.514;1.494;2023-04-25T07:41:24;2.70;;;0.70;;
78873;SDS011;68250;43.514;1.494;2023-04-25T07:43:49;3.07;;;0.73;;
78873;SDS011;68250;43.514;1.494;2023-04-25T07:46:15;4.97;;;0.68;;
78873;SDS011;68250;43.514;1.494;2023-04-25T07:48:40;3.13;;;0.85;;
78873;SDS011;68250;43.514;1.494;2023-04-25T07:51:06;2.60;;;0.70;;
78873;SDS011;68250;43.514;1.494;2023-04-25T07:53:32;3.75;;;0.70;;
78873;SDS011;68250;43.514;1.494;2023-04-25T07:55:59;2.42;;;0.60;;
78873;SDS011;68250;43.514;1.494;2023-04-25T07:58:25;3.03;;;0.70;;
78873;SDS011;68250;43.514;1.494;2023-04-25T08:00:51;2.03;;;0.45;;
78873;SDS011;68250;43.514;1.494;2023-04-25T08:03:16;2.10;;;0.40;;
78873;SDS011;68250;43.514;1.494;2023-04-25T08:05:42;3.87;;;1.00;;
78873;SDS011;68250;43.514;1.494;2023-04-25T08:08:07;3.08;;;0.50;;
78873;SDS011;68250;43.514;1.494;2023-04-25T08:10:33;4.07;;;0.30;;
78873;SDS011;68250;43.514;1.494;2023-04-25T08:12:59;2.25;;;0.50;;
78873;SDS011;68250;43.514;1.494;2023-04-25T08:15:25;2.13;;;0.40;;
78873;SDS011;68250;43.514;1.494;2023-04-25T08:17:51;4.82;;;0.52;;
78873;SDS011;68250;43.514;1.494;2023-04-25T08:20:17;3.97;;;0.70;;
78873;SDS011;68250;43.514;1.494;2023-04-25T08:22:42;3.40;;;0.50;;
78873;SDS011;68250;43.514;1.494;2023-04-25T08:25:08;2.85;;;0.47;;
78873;SDS011;68250;43.514;1.494;2023-04-25T08:27:34;5.47;;;0.57;;
78873;SDS011;68250;43.514;1.494;2023-04-25T08:30:00;3.13;;;0.50;;
78873;SDS011;68250;43.514;1.494;2023-04-25T08:32:26;4.45;;;0.60;;
78873;SDS011;68250;43.514;1.494;2023-04-25T08:34:52;3.00;;;1.00;;
78873;SDS011;68250;43.514;1.494;2023-04-25T08:37:19;4.03;;;0.80;;
78873;SDS011;68250;43.514;1.494;2023-04-25T08:39:45;3.50;;;0.60;;
78873;SDS011;68250;43.514;1.494;2023-04-25T08:42:13;4.60;;;0.50;;
78873;SDS011;68250;43.514;1.494;2023-04-25T08:44:40;3.38;;;0.38;;
78873;SDS011;68250;43.514;1.494;2023-04-25T08:47:05;2.20;;;0.50;;
78873;SDS011;68250;43.514;1.494;2023-04-25T08:49:31;2.30;;;0.77;;
78873;SDS011;68250;43.514;1.494;2023-04-25T08:51:59;2.20;;;0.40;;
78873;SDS011;68250;43.514;1.494;2023-04-25T08:54:27;3.53;;;0.60;;
78873;SDS011;68250;43.514;1.494;2023-04-25T08:56:54;3.55;;;0.88;;
78873;SDS011;68250;43.514;1.494;2023-04-25T08:59:19;3.00;;;0.55;;
78873;SDS011;68250;43.514;1.494;2023-04-25T09:01:46;2.30;;;0.70;;
78873;SDS011;68250;43.514;1.494;2023-04-25T09:04:12;3.37;;;0.87;;
78873;SDS011;68250;43.514;1.494;2023-04-25T09:06:37;3.17;;;0.60;;
78873;SDS011;68250;43.514;1.494;2023-04-25T09:09:04;2.27;;;0.40;;
78873;SDS011;68250;43.514;1.494;2023-04-25T09:11:31;3.47;;;0.80;;
78873;SDS011;68250;43.514;1.494;2023-04-25T09:14:13;2.50;;;0.50;;
78873;SDS011;68250;43.514;1.494;2023-04-25T09:17:22;2.45;;;0.60;;
78873;SDS011;68250;43.514;1.494;2023-04-25T09:19:33;4.13;;;0.87;;
78873;SDS011;68250;43.514;1.494;2023-04-25T09:22:04;2.20;;;0.40;;
78873;SDS011;68250;43.514;1.494;2023-04-25T09:27:00;2.15;;;0.50;;
78873;SDS011;68250;43.514;1.494;2023-04-25T09:29:28;3.63;;;0.50;;
78873;SDS011;68250;43.514;1.494;2023-04-25T09:34:55;2.58;;;0.30;;
78873;SDS011;68250;43.514;1.494;2023-04-25T09:37:22;2.15;;;0.30;;
78873;SDS011;68250;43.514;1.494;2023-04-25T09:39:49;3.35;;;0.30;;
78873;SDS011;68250;43.514;1.494;2023-04-25T09:42:16;2.60;;;0.20;;
78873;SDS011;68250;43.514;1.494;2023-04-25T09:44:43;2.78;;;0.30;;
78873;SDS011;68250;43.514;1.494;2023-04-25T09:47:10;2.60;;;0.30;;
78873;SDS011;68250;43.514;1.494;2023-04-25T09:49:40;2.97;;;0.20;;
78873;SDS011;68250;43.514;1.494;2023-04-25T09:52:07;1.85;;;0.20;;
78873;SDS011;68250;43.514;1.494;2023-04-25T09:54:33;2.90;;;0.30;;
78873;SDS011;68250;43.514;1.494;2023-04-25T09:57:01;2.38;;;0.20;;
78873;SDS011;68250;43.514;1.494;2023-04-25T09:59:37;1.88;;;0.30;;
78873;SDS011;68250;43.514;1.494;2023-04-25T10:02:05;3.35;;;1.00;;
78873;SDS011;68250;43.514;1.494;2023-04-25T10:04:32;3.10;;;0.80;;
78873;SDS011;68250;43.514;1.494;2023-04-25T10:06:59;2.67;;;0.47;;
78873;SDS011;68250;43.514;1.494;2023-04-25T10:09:27;2.80;;;0.35;;
78873;SDS011;68250;43.514;1.494;2023-04-25T10:11:59;2.33;;;0.22;;
78873;SDS011;68250;43.514;1.494;2023-04-25T10:14:25;2.85;;;0.50;;
78873;SDS011;68250;43.514;1.494;2023-04-25T10:16:51;2.10;;;0.32;;
78873;SDS011;68250;43.514;1.494;2023-04-25T10:19:21;3.20;;;0.35;;
78873;SDS011;68250;43.514;1.494;2023-04-25T10:24:25;3.15;;;0.50;;
78873;SDS011;68250;43.514;1.494;2023-04-25T10:26:52;2.95;;;0.50;;
78873;SDS011;68250;43.514;1.494;2023-04-25T10:29:26;4.10;;;0.70;;
78873;SDS011;68250;43.514;1.494;2023-04-25T10:31:52;2.67;;;0.40;;
78873;SDS011;68250;43.514;1.494;2023-04-25T10:34:18;3.17;;;0.35;;
78873;SDS011;68250;43.514;1.494;2023-04-25T10:36:51;2.83;;;0.40;;
78873;SDS011;68250;43.514;1.494;2023-04-25T10:39:22;2.00;;;0.30;;
78873;SDS011;68250;43.514;1.494;2023-04-25T10:41:53;2.75;;;0.40;;
78873;SDS011;68250;43.514;1.494;2023-04-25T10:44:21;3.00;;;0.40;;
78873;SDS011;68250;43.514;1.494;2023-04-25T10:46:47;2.27;;;0.30;;
78873;SDS011;68250;43.514;1.494;2023-04-25T10:49:32;3.63;;;0.40;;
78873;SDS011;68250;43.514;1.494;2023-04-25T10:52:12;4.25;;;0.30;;
78873;SDS011;68250;43.514;1.494;2023-04-25T10:55:02;2.47;;;0.40;;
78873;SDS011;68250;43.514;1.494;2023-04-25T10:57:28;2.83;;;0.47;;
78873;SDS011;68250;43.514;1.494;2023-04-25T11:00:10;3.03;;;0.60;;
78873;SDS011;68250;43.514;1.494;2023-04-25T11:02:41;2.97;;;0.70;;
78873;SDS011;68250;43.514;1.494;2023-04-25T11:05:31;3.50;;;0.90;;
78873;SDS011;68250;43.514;1.494;2023-04-25T11:08:01;2.47;;;0.40;;
78873;SDS011;68250;43.514;1.494;2023-04-25T11:10:32;2.70;;;0.50;;
78873;SDS011;68250;43.514;1.494;2023-04-25T11:13:00;3.35;;;0.80;;
78873;SDS011;68250;43.514;1.494;2023-04-25T11:15:27;3.42;;;1.27;;
78873;SDS011;68250;43.514;1.494;2023-04-25T11:17:54;4.53;;;1.55;;
78873;SDS011;68250;43.514;1.494;2023-04-25T11:20:20;3.08;;;1.02;;
78873;SDS011;68250;43.514;1.494;2023-04-25T11:22:46;3.28;;;0.80;;
78873;SDS011;68250;43.514;1.494;2023-04-25T11:25:13;2.75;;;0.80;;
78873;SDS011;68250;43.514;1.494;2023-04-25T11:27:49;3.25;;;0.40;;
78873;SDS011;68250;43.514;1.494;2023-04-25T11:30:19;2.25;;;0.50;;
78873;SDS011;68250;43.514;1.494;2023-04-25T11:32:45;2.38;;;0.30;;
78873;SDS011;68250;43.514;1.494;2023-04-25T11:35:11;2.33;;;0.40;;
78873;SDS011;68250;43.514;1.494;2023-04-25T11:37:40;3.03;;;0.90;;
78873;SDS011;68250;43.514;1.494;2023-04-25T11:40:07;3.90;;;0.93;;
78873;SDS011;68250;43.514;1.494;2023-04-25T11:42:36;2.47;;;0.40;;
78873;SDS011;68250;43.514;1.494;2023-04-25T11:45:03;2.00;;;0.30;;
78873;SDS011;68250;43.514;1.494;2023-04-25T11:47:32;2.53;;;0.60;;
78873;SDS011;68250;43.514;1.494;2023-04-25T11:49:59;2.85;;;0.50;;
78873;SDS011;68250;43.514;1.494;2023-04-25T11:52:35;2.70;;;0.60;;
78873;SDS011;68250;43.514;1.494;2023-04-25T11:55:04;2.88;;;0.45;;
78873;SDS011;68250;43.514;1.494;2023-04-25T11:57:34;2.15;;;0.50;;
78873;SDS011;68250;43.514;1.494;2023-04-25T12:02:36;2.08;;;0.38;;
78873;SDS011;68250;43.514;1.494;2023-04-25T12:05:02;1.93;;;0.30;;
78873;SDS011;68250;43.514;1.494;2023-04-25T12:07:33;2.13;;;0.50;;
78873;SDS011;68250;43.514;1.494;2023-04-25T12:09:58;2.63;;;0.70;;
78873;SDS011;68250;43.514;1.494;2023-04-25T12:12:27;4.25;;;1.60;;
78873;SDS011;68250;43.514;1.494;2023-04-25T12:14:57;2.83;;;0.70;;
78873;SDS011;68250;43.514;1.494;2023-04-25T12:17:36;3.30;;;0.80;;
78873;SDS011;68250;43.514;1.494;2023-04-25T12:20:13;2.30;;;0.50;;
78873;SDS011;68250;43.514;1.494;2023-04-25T12:22:44;3.88;;;0.70;;
78873;SDS011;68250;43.514;1.494;2023-04-25T12:25:12;3.10;;;0.82;;
78873;SDS011;68250;43.514;1.494;2023-04-25T12:27:38;2.70;;;0.70;;
78873;SDS011;68250;43.514;1.494;2023-04-25T12:30:09;3.15;;;0.80;;
78873;SDS011;68250;43.514;1.494;2023-04-25T12:32:36;4.07;;;1.03;;
78873;SDS011;68250;43.514;1.494;2023-04-25T12:35:03;5.50;;;0.90;;
78873;SDS011;68250;43.514;1.494;2023-04-25T12:37:29;3.28;;;1.00;;
78873;SDS011;68250;43.514;1.494;2023-04-25T12:39:55;3.58;;;1.33;;
78873;SDS011;68250;43.514;1.494;2023-04-25T12:42:21;3.97;;;1.10;;
78873;SDS011;68250;43.514;1.494;2023-04-25T12:44:47;8.40;;;4.90;;
78873;SDS011;68250;43.514;1.494;2023-04-25T12:47:12;3.42;;;0.90;;
78873;SDS011;68250;43.514;1.494;2023-04-25T12:49:38;4.43;;;1.40;;
78873;SDS011;68250;43.514;1.494;2023-04-25T12:52:03;3.53;;;1.27;;
78873;SDS011;68250;43.514;1.494;2023-04-25T12:54:29;5.07;;;2.97;;
78873;SDS011;68250;43.514;1.494;2023-04-25T12:56:54;2.80;;;0.97;;
78873;SDS011;68250;43.514;1.494;2023-04-25T12:59:20;3.25;;;0.90;;
78873;SDS011;68250;43.514;1.494;2023-04-25T13:01:46;3.40;;;1.70;;
78873;SDS011;68250;43.514;1.494;2023-04-25T13:04:12;4.00;;;0.90;;
78873;SDS011;68250;43.514;1.494;2023-04-25T13:06:37;9.13;;;6.60;;
78873;SDS011;68250;43.514;1.494;2023-04-25T13:09:03;3.30;;;1.25;;
78873;SDS011;68250;43.514;1.494;2023-04-25T13:11:29;4.30;;;2.40;;
78873;SDS011;68250;43.514;1.494;2023-04-25T13:13:55;4.15;;;2.28;;
78873;SDS011;68250;43.514;1.494;2023-04-25T13:16:21;6.10;;;3.70;;
78873;SDS011;68250;43.514;1.494;2023-04-25T13:18:47;3.40;;;1.30;;
78873;SDS011;68250;43.514;1.494;2023-04-25T13:21:13;4.67;;;2.80;;
78873;SDS011;68250;43.514;1.494;2023-04-25T13:23:38;4.35;;;1.40;;
78873;SDS011;68250;43.514;1.494;2023-04-25T13:26:04;4.50;;;2.27;;
78873;SDS011;68250;43.514;1.494;2023-04-25T13:28:30;4.07;;;2.00;;
78873;SDS011;68250;43.514;1.494;2023-04-25T13:30:56;3.20;;;1.20;;
78873;SDS011;68250;43.514;1.494;2023-04-25T13:33:21;4.10;;;2.03;;
78873;SDS011;68250;43.514;1.494;2023-04-25T13:35:47;4.47;;;1.60;;
78873;SDS011;68250;43.514;1.494;2023-04-25T13:38:21;5.18;;;2.63;;
78873;SDS011;68250;43.514;1.494;2023-04-25T13:40:48;4.70;;;1.60;;
78873;SDS011;68250;43.514;1.494;2023-04-25T13:43:14;3.33;;;1.10;;
78873;SDS011;68250;43.514;1.494;2023-04-25T13:45:40;2.70;;;0.85;;
78873;SDS011;68250;43.514;1.494;2023-04-25T13:48:06;4.17;;;1.07;;
78873;SDS011;68250;43.514;1.494;2023-04-25T13:50:31;3.15;;;1.23;;
78873;SDS011;68250;43.514;1.494;2023-04-25T13:52:57;3.37;;;1.10;;
78873;SDS011;68250;43.514;1.494;2023-04-25T13:55:22;4.65;;;2.00;;
78873;SDS011;68250;43.514;1.494;2023-04-25T13:57:48;3.00;;;0.82;;
78873;SDS011;68250;43.514;1.494;2023-04-25T14:00:13;2.93;;;0.80;;
78873;SDS011;68250;43.514;1.494;2023-04-25T14:02:39;4.68;;;0.70;;
78873;SDS011;68250;43.514;1.494;2023-04-25T14:05:05;3.20;;;1.10;;
78873;SDS011;68250;43.514;1.494;2023-04-25T14:07:33;3.88;;;0.93;;
78873;SDS011;68250;43.514;1.494;2023-04-25T14:09:59;3.85;;;1.60;;
78873;SDS011;68250;43.514;1.494;2023-04-25T14:12:25;3.97;;;1.17;;
78873;SDS011;68250;43.514;1.494;2023-04-25T14:14:51;3.30;;;1.43;;
78873;SDS011;68250;43.514;1.494;2023-04-25T14:17:18;4.78;;;1.60;;
78873;SDS011;68250;43.514;1.494;2023-04-25T14:19:44;3.63;;;1.27;;
78873;SDS011;68250;43.514;1.494;2023-04-25T14:22:10;3.33;;;0.83;;
78873;SDS011;68250;43.514;1.494;2023-04-25T14:24:36;4.75;;;2.10;;
78873;SDS011;68250;43.514;1.494;2023-04-25T14:27:02;3.73;;;1.60;;
78873;SDS011;68250;43.514;1.494;2023-04-25T14:29:29;3.00;;;1.08;;
78873;SDS011;68250;43.514;1.494;2023-04-25T14:31:54;3.72;;;0.82;;
78873;SDS011;68250;43.514;1.494;2023-04-25T14:34:22;3.38;;;1.08;;
78873;SDS011;68250;43.514;1.494;2023-04-25T14:36:48;2.70;;;0.83;;
78873;SDS011;68250;43.514;1.494;2023-04-25T14:39:13;3.17;;;0.90;;
78873;SDS011;68250;43.514;1.494;2023-04-25T14:41:39;3.55;;;1.05;;
78873;SDS011;68250;43.514;1.494;2023-04-25T14:44:05;4.70;;;2.40;;
78873;SDS011;68250;43.514;1.494;2023-04-25T14:46:31;2.93;;;1.07;;
78873;SDS011;68250;43.514;1.494;2023-04-25T14:48:56;3.20;;;1.00;;
78873;SDS011;68250;43.514;1.494;2023-04-25T14:51:22;2.95;;;0.98;;
78873;SDS011;68250;43.514;1.494;2023-04-25T14:53:48;24.40;;;9.80;;
78873;SDS011;68250;43.514;1.494;2023-04-25T14:56:13;31.27;;;10.20;;